createdAt,value
2017-10-30T00:01:07.667Z,10.30
2017-10-30T00:03:38.962Z,10.40
2017-10-30T00:06:09.956Z,10.40
2017-10-30T00:08:41.407Z,10.40
2017-10-30T00:11:12.650Z,10.40
2017-10-30T00:13:45.552Z,10.30
2017-10-30T00:16:21.197Z,10.20
2017-10-30T00:18:52.219Z,10.10
2017-10-30T00:21:28.792Z,10.10
2017-10-30T00:24:00.555Z,10.10
2017-10-30T00:26:35.957Z,10.10
2017-10-30T00:29:07.008Z,10.00
2017-10-30T00:31:37.958Z,10.10
2017-10-30T00:34:12.078Z,10.10
2017-10-30T00:36:44.664Z,10.10
2017-10-30T00:39:20.967Z,10.10
2017-10-30T00:41:55.037Z,10.10
2017-10-30T00:44:26.986Z,10.00
2017-10-30T00:46:59.480Z,10.00
2017-10-30T00:49:30.320Z,10.00
2017-10-30T00:52:05.452Z,10.00
2017-10-30T00:54:41.708Z,9.90
2017-10-30T00:57:11.410Z,9.90
2017-10-30T00:59:43.269Z,9.80
2017-10-30T01:02:16.258Z,9.90
2017-10-30T01:04:47.319Z,9.90
2017-10-30T01:07:19.687Z,9.90
2017-10-30T01:09:58.512Z,9.90
2017-10-30T01:12:33.532Z,9.90
2017-10-30T01:15:06.410Z,9.90
2017-10-30T01:17:37.955Z,9.90
2017-10-30T01:20:11.474Z,9.80
2017-10-30T01:22:47.414Z,9.90
2017-10-30T01:25:18.152Z,9.90
2017-10-30T01:27:50.707Z,9.90
2017-10-30T01:30:22.676Z,10.00
2017-10-30T01:32:53.417Z,10.00
2017-10-30T01:35:24.460Z,10.00
2017-10-30T01:37:56.220Z,10.10
2017-10-30T01:40:27.670Z,10.10
2017-10-30T01:42:58.971Z,10.00
2017-10-30T01:45:31.275Z,10.00
2017-10-30T01:48:02.653Z,10.00
2017-10-30T01:50:33.978Z,10.00
2017-10-30T01:53:06.257Z,9.90
2017-10-30T01:55:37.188Z,10.00
2017-10-30T01:58:08.937Z,10.00
2017-10-30T02:00:40.178Z,10.10
2017-10-30T02:03:12.966Z,10.00
2017-10-30T02:05:45.238Z,10.00
2017-10-30T02:08:16.497Z,10.00
2017-10-30T02:10:47.927Z,9.90
2017-10-30T02:13:18.968Z,9.90
2017-10-30T02:15:55.751Z,9.90
2017-10-30T02:18:26.681Z,10.00
2017-10-30T02:20:58.662Z,9.90
2017-10-30T02:23:30.921Z,9.90
2017-10-30T02:26:05.237Z,9.90
2017-10-30T02:28:39.955Z,10.00
2017-10-30T02:31:12.995Z,10.00
2017-10-30T02:33:46.951Z,10.00
2017-10-30T02:36:20.239Z,10.00
2017-10-30T02:38:52.122Z,9.90
2017-10-30T02:41:26.832Z,9.90
2017-10-30T02:43:58.585Z,9.90
2017-10-30T02:46:29.530Z,9.90
2017-10-30T02:49:03.124Z,9.80
2017-10-30T02:51:34.075Z,9.80
2017-10-30T02:54:07.995Z,9.80
2017-10-30T02:56:38.992Z,9.80
2017-10-30T02:59:16.983Z,9.70
2017-10-30T03:01:53.578Z,9.70
2017-10-30T03:04:24.944Z,9.70
2017-10-30T03:06:58.447Z,9.60
2017-10-30T03:09:29.576Z,9.60
2017-10-30T03:12:03.981Z,9.60
2017-10-30T03:14:37.819Z,9.60
2017-10-30T03:17:12.621Z,9.60
2017-10-30T03:19:44.191Z,9.60
2017-10-30T03:22:18.416Z,9.50
2017-10-30T03:24:51.391Z,9.40
2017-10-30T03:27:23.750Z,9.40
2017-10-30T03:30:00.451Z,9.40
2017-10-30T03:32:31.270Z,9.30
2017-10-30T03:35:02.094Z,9.30
2017-10-30T03:37:38.994Z,9.30
2017-10-30T03:40:12.267Z,9.20
2017-10-30T03:42:43.330Z,9.30
2017-10-30T03:45:16.494Z,9.30
2017-10-30T03:47:52.048Z,9.30
2017-10-30T03:50:23.375Z,9.30
2017-10-30T03:52:55.158Z,9.20
2017-10-30T03:55:29.478Z,9.10
2017-10-30T03:58:03.018Z,9.10
2017-10-30T04:00:34.839Z,9.10
2017-10-30T04:03:07.099Z,9.10
2017-10-30T04:05:39.878Z,9.10
2017-10-30T04:08:11.539Z,9.10
2017-10-30T04:10:42.484Z,9.00
2017-10-30T04:13:14.338Z,9.00
2017-10-30T04:15:46.498Z,9.00
2017-10-30T04:18:18.999Z,9.00
2017-10-30T04:20:51.440Z,9.00
2017-10-30T04:23:23.619Z,8.80
2017-10-30T04:25:58.758Z,8.90
2017-10-30T04:28:29.679Z,8.90
2017-10-30T04:31:01.998Z,8.90
2017-10-30T04:33:34.938Z,8.80
2017-10-30T04:36:04.998Z,8.80
2017-10-30T04:38:35.998Z,8.90
2017-10-30T04:41:06.418Z,8.90
2017-10-30T04:43:38.698Z,9.00
2017-10-30T04:46:09.518Z,9.00
2017-10-30T04:48:43.638Z,9.00
2017-10-30T04:51:16.221Z,8.90
2017-10-30T04:53:53.003Z,8.90
2017-10-30T04:56:25.261Z,8.80
2017-10-30T04:58:56.039Z,8.80
2017-10-30T05:01:28.478Z,8.80
2017-10-30T05:04:02.179Z,8.80
2017-10-30T05:06:33.319Z,8.60
2017-10-30T05:09:06.059Z,8.80
2017-10-30T05:11:38.879Z,8.80
2017-10-30T05:14:09.918Z,8.80
2017-10-30T05:16:40.338Z,8.80
2017-10-30T05:19:10.878Z,8.80
2017-10-30T05:21:43.138Z,8.90
2017-10-30T05:24:14.038Z,8.80
2017-10-30T05:26:45.018Z,8.80
2017-10-30T05:29:15.859Z,8.70
2017-10-30T05:31:48.938Z,8.70
2017-10-30T05:34:20.897Z,8.70
2017-10-30T05:36:54.301Z,8.50
2017-10-30T05:39:25.858Z,8.50
2017-10-30T05:41:57.399Z,8.40
2017-10-30T05:44:29.018Z,8.40
2017-10-30T05:47:01.119Z,8.30
2017-10-30T05:49:32.384Z,8.40
2017-10-30T05:52:04.418Z,8.40
2017-10-30T05:54:39.558Z,8.40
2017-10-30T05:57:12.438Z,8.40
2017-10-30T05:59:46.258Z,8.40
2017-10-30T06:02:18.617Z,8.40
2017-10-30T06:04:49.768Z,8.40
2017-10-30T06:07:21.628Z,8.30
2017-10-30T06:09:54.808Z,8.30
2017-10-30T06:12:29.248Z,8.30
2017-10-30T06:15:01.300Z,8.40
2017-10-30T06:17:32.331Z,8.40
2017-10-30T06:20:11.669Z,8.30
2017-10-30T06:22:46.508Z,8.30
2017-10-30T06:25:23.022Z,8.30
2017-10-30T06:27:58.621Z,8.30
2017-10-30T06:30:33.146Z,8.30
2017-10-30T06:33:05.522Z,8.40
2017-10-30T06:35:42.022Z,8.40
2017-10-30T06:38:14.870Z,8.40
2017-10-30T06:40:45.878Z,8.60
2017-10-30T06:43:16.828Z,8.60
2017-10-30T06:45:52.015Z,8.60
2017-10-30T06:48:25.377Z,8.80
2017-10-30T06:50:56.503Z,8.80
2017-10-30T06:53:28.470Z,8.80
2017-10-30T06:55:59.073Z,8.80
2017-10-30T06:58:29.952Z,8.80
2017-10-30T07:01:02.732Z,8.80
2017-10-30T07:03:39.291Z,8.90
2017-10-30T07:06:13.612Z,9.00
2017-10-30T07:08:45.012Z,9.00
2017-10-30T07:11:17.133Z,9.10
2017-10-30T07:13:48.372Z,9.10
2017-10-30T07:16:20.420Z,9.10
2017-10-30T07:18:54.648Z,9.10
2017-10-30T07:21:26.497Z,9.10
2017-10-30T07:23:59.917Z,9.20
2017-10-30T07:26:36.773Z,9.20
2017-10-30T07:29:11.296Z,9.20
2017-10-30T07:31:46.146Z,9.30
2017-10-30T07:34:17.479Z,9.40
2017-10-30T07:36:48.218Z,9.40
2017-10-30T07:39:22.069Z,9.40
2017-10-30T07:41:52.964Z,9.40
2017-10-30T07:44:24.011Z,9.40
2017-10-30T07:46:57.184Z,9.50
2017-10-30T07:49:32.843Z,9.60
2017-10-30T07:52:05.503Z,9.60
2017-10-30T07:54:39.723Z,9.60
2017-10-30T07:57:11.684Z,9.70
2017-10-30T07:59:52.023Z,9.70
2017-10-30T08:02:25.144Z,9.60
2017-10-30T08:04:58.244Z,9.60
2017-10-30T08:07:29.043Z,9.60
2017-10-30T08:10:01.664Z,9.60
2017-10-30T08:12:32.676Z,9.70
2017-10-30T08:15:04.857Z,9.70
2017-10-30T08:17:43.979Z,9.70
2017-10-30T08:20:16.156Z,9.70
2017-10-30T08:22:48.616Z,9.70
2017-10-30T08:25:20.776Z,9.70
2017-10-30T08:27:53.165Z,9.70
2017-10-30T08:30:23.173Z,9.70
2017-10-30T08:32:56.778Z,10.00
2017-10-30T08:35:27.034Z,9.90
2017-10-30T08:38:01.419Z,10.00
2017-10-30T08:40:34.704Z,10.00
2017-10-30T08:43:11.271Z,10.00
2017-10-30T08:45:43.449Z,10.10
2017-10-30T08:48:23.033Z,10.20
2017-10-30T08:50:55.774Z,10.10
2017-10-30T08:53:29.273Z,10.20
2017-10-30T08:56:01.654Z,10.50
2017-10-30T08:58:38.033Z,10.60
2017-10-30T09:01:10.034Z,10.50
2017-10-30T09:03:40.793Z,10.50
2017-10-30T09:06:13.374Z,10.40
2017-10-30T09:08:45.734Z,10.50
2017-10-30T09:11:20.673Z,10.40
2017-10-30T09:13:52.073Z,10.40
2017-10-30T09:16:24.045Z,10.30
2017-10-30T09:19:04.046Z,10.30
2017-10-30T09:21:36.308Z,10.40
2017-10-30T09:24:09.808Z,10.50
2017-10-30T09:26:42.253Z,10.70
2017-10-30T09:29:15.366Z,10.70
2017-10-30T09:31:48.146Z,10.80
2017-10-30T09:34:20.827Z,11.00
2017-10-30T09:36:56.367Z,11.10
2017-10-30T09:39:27.046Z,11.20
2017-10-30T09:41:59.890Z,11.20
2017-10-30T09:44:32.565Z,11.10
2017-10-30T09:47:05.348Z,11.20
2017-10-30T09:49:38.527Z,11.10
2017-10-30T09:52:11.035Z,11.10
2017-10-30T09:54:44.726Z,11.10
2017-10-30T09:57:16.668Z,11.10
2017-10-30T09:59:48.066Z,11.20
2017-10-30T10:02:26.046Z,11.20
2017-10-30T10:04:58.886Z,11.20
2017-10-30T10:07:35.046Z,11.30
2017-10-30T10:10:06.307Z,11.40
2017-10-30T10:12:40.726Z,11.40
2017-10-30T10:28:13.553Z,12.40
2017-10-30T10:30:42.132Z,12.20
2017-10-30T10:33:10.722Z,12.10
2017-10-30T10:35:39.091Z,12.20
2017-10-30T10:38:07.261Z,12.00
2017-10-30T10:40:35.431Z,11.90
2017-10-30T10:43:03.732Z,11.90
2017-10-30T10:45:32.111Z,12.00
2017-10-30T10:48:01.191Z,12.40
2017-10-30T10:50:29.572Z,12.40
2017-10-30T10:52:57.831Z,12.60
2017-10-30T10:55:26.139Z,12.80
2017-10-30T10:57:55.434Z,13.30
2017-10-30T11:00:24.756Z,13.40
2017-10-30T11:02:52.874Z,13.40
2017-10-30T11:05:21.394Z,13.70
2017-10-30T11:07:50.455Z,14.10
2017-10-30T11:10:18.954Z,14.10
2017-10-30T11:12:47.314Z,14.40
2017-10-30T11:15:15.514Z,14.20
2017-10-30T11:17:44.598Z,14.80
2017-10-30T11:20:13.574Z,15.00
2017-10-30T11:22:43.414Z,15.10
2017-10-30T11:25:12.394Z,15.30
2017-10-30T11:27:41.594Z,14.90
2017-10-30T11:30:09.875Z,14.90
2017-10-30T11:32:38.854Z,15.60
2017-10-30T11:35:07.853Z,16.00
2017-10-30T11:37:36.934Z,16.20
2017-10-30T11:40:05.414Z,16.20
2017-10-30T11:42:33.813Z,16.30
2017-10-30T11:45:02.884Z,16.70
2017-10-30T11:47:31.047Z,16.70
2017-10-30T11:49:59.468Z,16.90
2017-10-30T11:52:28.567Z,16.60
2017-10-30T11:54:56.607Z,16.60
2017-10-30T11:57:24.908Z,16.50
2017-10-30T11:59:53.808Z,15.60
2017-10-30T12:02:22.048Z,15.60
2017-10-30T12:04:50.528Z,15.30
2017-10-30T12:07:19.828Z,14.70
2017-10-30T12:09:48.408Z,14.70
2017-10-30T12:12:16.768Z,14.50
2017-10-30T12:14:45.168Z,14.30
2017-10-30T12:17:13.669Z,14.20
2017-10-30T12:19:42.988Z,13.90
2017-10-30T12:22:11.328Z,13.90
2017-10-30T12:24:39.831Z,13.70
2017-10-30T12:27:09.228Z,13.50
2017-10-30T12:29:38.616Z,13.50
2017-10-30T12:32:07.230Z,13.50
2017-10-30T12:34:35.608Z,13.40
2017-10-30T12:37:03.847Z,13.40
2017-10-30T12:39:32.288Z,13.40
2017-10-30T12:42:01.028Z,13.20
2017-10-30T12:44:30.208Z,13.10
2017-10-30T12:46:59.408Z,13.10
2017-10-30T12:49:27.768Z,13.10
2017-10-30T12:51:56.147Z,13.00
2017-10-30T12:54:24.768Z,13.00
2017-10-30T12:56:54.088Z,12.90
2017-10-30T12:59:22.428Z,12.90
2017-10-30T13:01:51.727Z,12.70
2017-10-30T13:04:19.786Z,12.60
2017-10-30T13:06:47.966Z,12.70
2017-10-30T13:09:16.266Z,12.60
2017-10-30T13:11:45.354Z,12.60
2017-10-30T13:14:14.286Z,12.50
2017-10-30T13:16:42.866Z,12.50
2017-10-30T13:19:11.106Z,12.50
2017-10-30T13:21:40.287Z,12.60
2017-10-30T13:24:08.574Z,12.60
2017-10-30T13:26:37.567Z,12.50
2017-10-30T13:29:06.966Z,12.40
2017-10-30T13:31:36.186Z,12.50
2017-10-30T13:34:04.366Z,12.50
2017-10-30T13:36:32.847Z,12.60
2017-10-30T13:39:01.176Z,12.60
2017-10-30T13:41:29.435Z,12.60
2017-10-30T13:43:57.794Z,12.60
2017-10-30T13:46:26.014Z,12.70
2017-10-30T13:48:55.196Z,12.50
2017-10-30T13:51:23.396Z,12.50
2017-10-30T13:53:52.478Z,12.50
2017-10-30T13:56:20.634Z,12.50
2017-10-30T13:58:48.734Z,12.40
2017-10-30T14:01:18.055Z,12.30
2017-10-30T14:03:46.683Z,12.30
2017-10-30T14:06:14.874Z,12.40
2017-10-30T14:08:43.174Z,12.50
2017-10-30T14:11:11.456Z,12.50
2017-10-30T14:13:40.214Z,12.50
2017-10-30T14:16:09.714Z,12.50
2017-10-30T14:18:38.114Z,12.50
2017-10-30T14:21:06.674Z,12.50
2017-10-30T14:23:36.215Z,12.50
2017-10-30T14:26:04.374Z,12.50
2017-10-30T14:28:33.435Z,12.40
2017-10-30T14:31:03.294Z,12.40
2017-10-30T14:33:31.434Z,12.40
2017-10-30T14:36:00.304Z,12.10
2017-10-30T14:38:28.637Z,12.10
2017-10-30T14:40:56.722Z,12.10
2017-10-30T14:43:25.035Z,12.20
2017-10-30T14:45:53.313Z,12.10
2017-10-30T14:48:21.710Z,12.10
2017-10-30T14:50:50.734Z,12.00
2017-10-30T14:53:19.158Z,12.00
2017-10-30T14:55:47.605Z,12.00
2017-10-30T14:58:15.820Z,12.00
2017-10-30T15:00:44.836Z,12.00
2017-10-30T15:03:14.295Z,12.20
2017-10-30T15:05:42.895Z,12.10
2017-10-30T15:08:11.375Z,12.20
2017-10-30T15:10:39.775Z,12.10
2017-10-30T15:13:08.655Z,12.00
2017-10-30T15:15:37.015Z,12.00
2017-10-30T15:18:05.682Z,12.00
2017-10-30T15:20:33.956Z,12.00
2017-10-30T15:23:03.238Z,11.90
2017-10-30T15:25:31.536Z,11.90
2017-10-30T15:27:59.681Z,11.90
2017-10-30T15:30:27.942Z,11.90
2017-10-30T15:32:56.288Z,11.90
2017-10-30T15:35:24.468Z,11.80
2017-10-30T15:37:52.729Z,11.70
2017-10-30T15:40:21.992Z,11.70
2017-10-30T15:42:50.335Z,11.70
2017-10-30T15:45:18.692Z,11.70
2017-10-30T15:47:47.176Z,11.70
2017-10-30T15:50:16.168Z,11.60
2017-10-30T15:52:44.547Z,11.60
2017-10-30T15:55:13.038Z,11.60
2017-10-30T15:57:42.508Z,11.60
2017-10-30T16:00:10.799Z,11.60
2017-10-30T16:02:39.338Z,11.70
2017-10-30T16:05:07.999Z,11.70
2017-10-30T16:07:36.459Z,11.70
2017-10-30T16:10:05.218Z,11.80
2017-10-30T16:12:33.399Z,11.80
2017-10-30T16:15:01.759Z,11.80
2017-10-30T16:17:30.158Z,11.80
2017-10-30T16:19:58.718Z,11.70
2017-10-30T16:22:27.078Z,11.60
2017-10-30T16:24:55.505Z,11.60
2017-10-30T16:27:23.905Z,11.70
2017-10-30T16:29:51.984Z,11.70
2017-10-30T16:32:20.025Z,11.70
2017-10-30T16:34:49.005Z,11.70
2017-10-30T16:37:17.372Z,11.70
2017-10-30T16:39:45.785Z,11.70
2017-10-30T16:42:15.066Z,11.60
2017-10-30T16:44:43.685Z,11.60
2017-10-30T16:47:12.034Z,11.60
2017-10-30T16:49:40.415Z,11.50
2017-10-30T16:52:09.615Z,11.10
2017-10-30T16:54:38.795Z,11.00
2017-10-30T16:57:07.027Z,11.00
2017-10-30T16:59:35.362Z,11.00
2017-10-30T17:02:04.754Z,10.80
2017-10-30T17:04:33.914Z,10.80
2017-10-30T17:07:02.139Z,10.70
2017-10-30T17:09:31.489Z,10.70
2017-10-30T17:11:59.986Z,10.70
2017-10-30T17:14:28.530Z,10.60
2017-10-30T17:16:57.330Z,10.60
2017-10-30T17:19:25.969Z,10.60
2017-10-30T17:21:55.169Z,10.60
2017-10-30T17:24:24.771Z,10.70
2017-10-30T17:26:53.850Z,10.70
2017-10-30T17:29:22.057Z,10.70
2017-10-30T17:31:51.334Z,10.80
2017-10-30T17:34:19.673Z,10.70
2017-10-30T17:36:48.052Z,10.70
2017-10-30T17:39:16.813Z,10.70
2017-10-30T17:41:45.532Z,10.50
2017-10-30T17:44:14.184Z,10.60
2017-10-30T17:46:42.974Z,10.50
2017-10-30T17:49:11.612Z,10.50
2017-10-30T17:51:40.832Z,10.40
2017-10-30T17:54:10.197Z,10.30
2017-10-30T17:56:38.472Z,10.30
2017-10-30T17:59:06.851Z,10.20
2017-10-30T18:01:35.452Z,10.20
2017-10-30T18:04:03.852Z,10.20
2017-10-30T18:06:32.072Z,10.20
2017-10-30T18:09:00.512Z,10.30
2017-10-30T18:11:29.172Z,10.30
2017-10-30T18:13:58.432Z,10.30
2017-10-30T18:16:27.033Z,10.20
2017-10-30T18:18:55.415Z,10.30
2017-10-30T18:21:24.189Z,10.30
2017-10-30T18:23:52.794Z,10.20
2017-10-30T18:26:20.934Z,10.20
2017-10-30T18:28:49.496Z,10.20
2017-10-30T18:31:17.617Z,10.20
2017-10-30T18:33:45.777Z,10.30
2017-10-30T18:36:14.539Z,10.20
2017-10-30T18:38:43.098Z,10.20
2017-10-30T18:41:11.646Z,10.10
2017-10-30T18:43:39.933Z,10.00
2017-10-30T18:46:09.527Z,9.90
2017-10-30T18:48:37.699Z,9.90
2017-10-30T18:51:06.139Z,9.90
2017-10-30T18:53:34.482Z,9.90
2017-10-30T18:56:03.818Z,9.80
2017-10-30T18:58:32.027Z,9.80
2017-10-30T19:01:00.340Z,9.80
2017-10-30T19:03:28.479Z,9.90
2017-10-30T19:05:56.938Z,9.80
2017-10-30T19:08:25.021Z,9.80
2017-10-30T19:10:53.218Z,9.70
2017-10-30T19:13:22.437Z,9.60
2017-10-30T19:15:50.674Z,9.60
2017-10-30T19:18:18.934Z,9.50
2017-10-30T19:20:47.307Z,9.50
2017-10-30T19:23:15.392Z,9.50
2017-10-30T19:25:43.715Z,9.40
2017-10-30T19:28:12.609Z,9.40
2017-10-30T19:30:41.188Z,9.50
2017-10-30T19:33:09.647Z,9.40
2017-10-30T19:35:39.029Z,9.50
2017-10-30T19:38:07.328Z,9.50
2017-10-30T19:40:36.607Z,9.40
2017-10-30T19:43:04.828Z,9.30
2017-10-30T19:45:33.067Z,9.30
2017-10-30T19:48:02.349Z,9.30
2017-10-30T19:50:30.608Z,9.20
2017-10-30T19:52:59.008Z,9.20
2017-10-30T19:55:28.268Z,9.20
2017-10-30T19:57:56.848Z,9.10
2017-10-30T20:00:24.947Z,9.20
2017-10-30T20:02:54.608Z,9.10
2017-10-30T20:05:28.468Z,9.10
2017-10-30T20:07:56.647Z,9.00
2017-10-30T20:10:30.536Z,9.10
2017-10-30T20:12:58.527Z,9.10
2017-10-30T20:15:27.300Z,9.00
2017-10-30T20:17:55.674Z,9.00
2017-10-30T20:20:23.949Z,9.00
2017-10-30T20:22:52.309Z,9.00
2017-10-30T20:25:20.467Z,8.90
2017-10-30T20:27:48.699Z,9.00
2017-10-30T20:30:16.802Z,9.00
2017-10-30T20:32:45.329Z,8.90
2017-10-30T20:35:13.496Z,8.80
2017-10-30T20:37:41.716Z,8.80
2017-10-30T20:40:10.316Z,8.80
2017-10-30T20:42:38.637Z,8.70
2017-10-30T20:45:06.903Z,8.60
2017-10-30T20:47:35.212Z,8.60
2017-10-30T20:50:04.168Z,8.60
2017-10-30T20:52:32.637Z,8.60
2017-10-30T20:55:00.942Z,8.50
2017-10-30T20:57:29.288Z,8.50
2017-10-30T20:59:57.749Z,7.50
2017-10-30T21:02:26.308Z,8.50
2017-10-30T21:04:55.308Z,8.50
2017-10-30T21:07:23.535Z,8.50
2017-10-30T21:09:51.969Z,8.40
2017-10-30T21:12:20.408Z,8.30
2017-10-30T21:14:48.788Z,8.30
2017-10-30T21:17:17.869Z,8.30
2017-10-30T21:19:46.148Z,8.30
2017-10-30T21:22:14.337Z,8.40
2017-10-30T21:24:43.368Z,8.50
2017-10-30T21:27:11.448Z,8.40
2017-10-30T21:29:39.832Z,8.40
2017-10-30T21:32:08.388Z,8.30
2017-10-30T21:34:36.628Z,8.30
2017-10-30T21:37:04.648Z,8.20
2017-10-30T21:39:33.171Z,8.20
2017-10-30T21:42:01.549Z,8.10
2017-10-30T21:44:30.050Z,8.10
2017-10-30T21:46:59.028Z,8.00
2017-10-30T21:49:27.189Z,8.00
2017-10-30T21:51:55.489Z,8.00
2017-10-30T21:54:24.368Z,8.10
2017-10-30T21:56:52.528Z,8.00
2017-10-30T21:59:21.028Z,8.00
2017-10-30T22:01:50.008Z,8.00
2017-10-30T22:04:18.149Z,8.00
2017-10-30T22:06:46.233Z,8.00
2017-10-30T22:09:14.729Z,7.90
2017-10-30T22:11:43.108Z,7.90
2017-10-30T22:14:11.283Z,7.90
2017-10-30T22:16:39.553Z,7.80
2017-10-30T22:19:07.932Z,7.80
2017-10-30T22:21:36.012Z,7.70
2017-10-30T22:24:04.212Z,7.70
2017-10-30T22:26:33.232Z,7.70
2017-10-30T22:29:01.937Z,7.70
2017-10-30T22:31:30.560Z,7.70
2017-10-30T22:33:59.433Z,7.60
2017-10-30T22:36:27.587Z,7.60
2017-10-30T22:38:56.193Z,7.60
2017-10-30T22:41:24.335Z,7.60
2017-10-30T22:43:52.680Z,7.60
2017-10-30T22:46:20.796Z,7.70
2017-10-30T22:48:48.983Z,7.60
2017-10-30T22:51:17.127Z,7.60
2017-10-30T22:53:45.310Z,7.70
2017-10-30T22:56:13.392Z,7.70
2017-10-30T22:58:41.576Z,7.80
2017-10-30T23:01:09.893Z,7.80
2017-10-30T23:03:38.005Z,7.70
2017-10-30T23:06:06.074Z,7.70
2017-10-30T23:08:34.554Z,7.70
2017-10-30T23:11:02.734Z,7.70
2017-10-30T23:13:30.913Z,7.60
2017-10-30T23:15:59.114Z,7.50
2017-10-30T23:18:28.133Z,7.60
2017-10-30T23:20:56.353Z,7.50
2017-10-30T23:23:24.533Z,7.60
2017-10-30T23:25:52.593Z,7.60
2017-10-30T23:28:20.677Z,7.50
2017-10-30T23:30:49.774Z,7.30
2017-10-30T23:33:17.932Z,7.30
2017-10-30T23:35:46.252Z,7.30
2017-10-30T23:38:14.513Z,7.30
2017-10-30T23:40:43.473Z,7.30
2017-10-30T23:43:11.653Z,7.20
2017-10-30T23:45:39.841Z,7.20
2017-10-30T23:48:08.810Z,7.30
2017-10-30T23:50:36.713Z,7.30
2017-10-30T23:53:05.880Z,7.30
2017-10-30T23:55:34.488Z,7.30
2017-10-30T23:58:03.371Z,7.30
